sensor_id;sensor_type;location;lat;lon;timestamp;pressure;altitude;pressure_sealevel;temperature;humidity
10921;BME280;5513;50.580;8.818;2023-04-28T00:01:03;98894.78;;;11.99;100.00
10921;BME280;5513;50.580;8.818;2023-04-28T00:03:32;98888.97;;;12.06;100.00
10921;BME280;5513;50.580;8.818;2023-04-28T00:06:01;98891.88;;;12.26;100.00
10921;BME280;5513;50.580;8.818;2023-04-28T00:08:29;98883.22;;;12.12;100.00
10921;BME280;5513;50.580;8.818;2023-04-28T00:10:57;98881.53;;;12.11;100.00
10921;BME280;5513;50.580;8.818;2023-04-28T00:13:26;98877.22;;;12.21;100.00
10921;BME280;5513;50.580;8.818;2023-04-28T00:15:54;98868.88;;;12.14;100.00
10921;BME280;5513;50.580;8.818;2023-04-28T00:18:25;98865.16;;;12.17;100.00
10921;BME280;5513;50.580;8.818;2023-04-28T00:20:54;98865.22;;;12.04;100.00
10921;BME280;5513;50.580;8.818;2023-04-28T00:23:23;98864.16;;;12.07;100.00
10921;BME280;5513;50.580;8.818;2023-04-28T00:25:51;98858.09;;;12.04;100.00
10921;BME280;5513;50.580;8.818;2023-04-28T00:28:20;98863.34;;;11.93;100.00
10921;BME280;5513;50.580;8.818;2023-04-28T00:31:00;98847.28;;;11.84;100.00
10921;BME280;5513;50.580;8.818;2023-04-28T00:33:29;98841.97;;;11.84;100.00
10921;BME280;5513;50.580;8.818;2023-04-28T00:35:58;98845.81;;;11.80;100.00
10921;BME280;5513;50.580;8.818;2023-04-28T00:38:27;98840.88;;;11.86;100.00
10921;BME280;5513;50.580;8.818;2023-04-28T00:40:56;98841.88;;;11.96;100.00
10921;BME280;5513;50.580;8.818;2023-04-28T00:43:24;98834.03;;;11.95;100.00
10921;BME280;5513;50.580;8.818;2023-04-28T00:45:52;98834.31;;;11.79;100.00
10921;BME280;5513;50.580;8.818;2023-04-28T00:48:20;98831.75;;;11.90;100.00
10921;BME280;5513;50.580;8.818;2023-04-28T00:50:51;98827.63;;;11.86;100.00
10921;BME280;5513;50.580;8.818;2023-04-28T00:53:20;98818.88;;;11.97;100.00
10921;BME280;5513;50.580;8.818;2023-04-28T00:55:49;98823.84;;;11.78;100.00
10921;BME280;5513;50.580;8.818;2023-04-28T00:58:19;98820.13;;;11.80;100.00
10921;BME280;5513;50.580;8.818;2023-04-28T01:00:47;98814.38;;;11.73;100.00
10921;BME280;5513;50.580;8.818;2023-04-28T01:03:15;98811.69;;;11.86;100.00
10921;BME280;5513;50.580;8.818;2023-04-28T01:05:44;98814.47;;;11.85;100.00
10921;BME280;5513;50.580;8.818;2023-04-28T01:08:14;98811.31;;;11.80;100.00
10921;BME280;5513;50.580;8.818;2023-04-28T01:10:42;98802.28;;;11.58;100.00
10921;BME280;5513;50.580;8.818;2023-04-28T01:13:11;98800.00;;;11.65;100.00
10921;BME280;5513;50.580;8.818;2023-04-28T01:15:39;98801.69;;;11.66;100.00
10921;BME280;5513;50.580;8.818;2023-04-28T01:18:08;98799.09;;;11.53;100.00
10921;BME280;5513;50.580;8.818;2023-04-28T01:20:36;98794.72;;;11.41;100.00
10921;BME280;5513;50.580;8.818;2023-04-28T01:23:10;98789.84;;;11.35;100.00
10921;BME280;5513;50.580;8.818;2023-04-28T01:25:41;98788.88;;;11.36;100.00
10921;BME280;5513;50.580;8.818;2023-04-28T01:28:10;98791.78;;;11.33;100.00
10921;BME280;5513;50.580;8.818;2023-04-28T01:30:39;98784.31;;;11.38;100.00
10921;BME280;5513;50.580;8.818;2023-04-28T01:33:07;98781.78;;;11.36;100.00
10921;BME280;5513;50.580;8.818;2023-04-28T01:35:35;98782.13;;;11.32;100.00
10921;BME280;5513;50.580;8.818;2023-04-28T01:38:03;98784.22;;;11.39;100.00
10921;BME280;5513;50.580;8.818;2023-04-28T01:40:31;98782.72;;;11.35;100.00
10921;BME280;5513;50.580;8.818;2023-04-28T01:43:01;98776.94;;;11.30;100.00
10921;BME280;5513;50.580;8.818;2023-04-28T01:45:29;98782.50;;;11.38;100.00
10921;BME280;5513;50.580;8.818;2023-04-28T01:47:57;98778.44;;;11.45;100.00
10921;BME280;5513;50.580;8.818;2023-04-28T01:50:25;98772.81;;;11.26;100.00
10921;BME280;5513;50.580;8.818;2023-04-28T01:52:53;98768.22;;;11.28;100.00
10921;BME280;5513;50.580;8.818;2023-04-28T01:55:21;98768.75;;;11.33;100.00
10921;BME280;5513;50.580;8.818;2023-04-28T01:57:49;98765.03;;;11.36;100.00
10921;BME280;5513;50.580;8.818;2023-04-28T02:00:20;98759.09;;;11.32;100.00
10921;BME280;5513;50.580;8.818;2023-04-28T02:02:48;98753.69;;;11.34;100.00
10921;BME280;5513;50.580;8.818;2023-04-28T02:05:17;98744.66;;;11.36;100.00
10921;BME280;5513;50.580;8.818;2023-04-28T02:07:45;98749.78;;;11.27;100.00
10921;BME280;5513;50.580;8.818;2023-04-28T02:10:14;98755.50;;;11.33;100.00
10921;BME280;5513;50.580;8.818;2023-04-28T02:12:42;98763.94;;;11.38;100.00
10921;BME280;5513;50.580;8.818;2023-04-28T02:15:10;98761.19;;;11.40;100.00
10921;BME280;5513;50.580;8.818;2023-04-28T02:17:39;98763.84;;;11.40;100.00
10921;BME280;5513;50.580;8.818;2023-04-28T02:20:10;98760.34;;;11.39;100.00
10921;BME280;5513;50.580;8.818;2023-04-28T02:22:40;98758.25;;;11.32;100.00
10921;BME280;5513;50.580;8.818;2023-04-28T02:25:08;98750.63;;;11.27;100.00
10921;BME280;5513;50.580;8.818;2023-04-28T02:27:36;98747.81;;;11.17;100.00
10921;BME280;5513;50.580;8.818;2023-04-28T02:30:05;98751.78;;;11.12;100.00
10921;BME280;5513;50.580;8.818;2023-04-28T02:32:34;98752.72;;;11.11;100.00
10921;BME280;5513;50.580;8.818;2023-04-28T02:35:05;98751.88;;;11.10;100.00
10921;BME280;5513;50.580;8.818;2023-04-28T02:37:33;98757.56;;;10.93;100.00
10921;BME280;5513;50.580;8.818;2023-04-28T02:40:02;98753.81;;;10.96;100.00
10921;BME280;5513;50.580;8.818;2023-04-28T02:42:30;98752.69;;;10.87;100.00
10921;BME280;5513;50.580;8.818;2023-04-28T02:44:58;98746.94;;;10.93;100.00
10921;BME280;5513;50.580;8.818;2023-04-28T02:47:26;98739.19;;;10.90;100.00
10921;BME280;5513;50.580;8.818;2023-04-28T02:49:54;98746.75;;;10.83;100.00
10921;BME280;5513;50.580;8.818;2023-04-28T02:52:24;98750.69;;;10.78;100.00
10921;BME280;5513;50.580;8.818;2023-04-28T02:54:52;98745.72;;;10.73;100.00
10921;BME280;5513;50.580;8.818;2023-04-28T02:57:23;98742.00;;;10.76;100.00
10921;BME280;5513;50.580;8.818;2023-04-28T02:59:51;98737.25;;;10.81;100.00
10921;BME280;5513;50.580;8.818;2023-04-28T03:02:19;98731.84;;;10.70;100.00
10921;BME280;5513;50.580;8.818;2023-04-28T03:04:48;98721.53;;;10.78;100.00
10921;BME280;5513;50.580;8.818;2023-04-28T03:07:17;98711.59;;;10.81;100.00
10921;BME280;5513;50.580;8.818;2023-04-28T03:09:47;98708.00;;;10.82;100.00
10921;BME280;5513;50.580;8.818;2023-04-28T03:12:15;98702.22;;;10.88;100.00
10921;BME280;5513;50.580;8.818;2023-04-28T03:14:43;98705.03;;;10.74;100.00
10921;BME280;5513;50.580;8.818;2023-04-28T03:17:12;98698.34;;;10.81;100.00
10921;BME280;5513;50.580;8.818;2023-04-28T03:19:40;98704.38;;;10.83;100.00
10921;BME280;5513;50.580;8.818;2023-04-28T03:22:09;98698.72;;;10.88;100.00
10921;BME280;5513;50.580;8.818;2023-04-28T03:24:37;98705.09;;;10.85;100.00
10921;BME280;5513;50.580;8.818;2023-04-28T03:27:07;98703.00;;;10.78;100.00
10921;BME280;5513;50.580;8.818;2023-04-28T03:29:36;98705.03;;;10.74;100.00
10921;BME280;5513;50.580;8.818;2023-04-28T03:32:04;98715.69;;;10.62;100.00
10921;BME280;5513;50.580;8.818;2023-04-28T03:34:33;98715.44;;;10.65;100.00
10921;BME280;5513;50.580;8.818;2023-04-28T03:37:01;98712.16;;;10.74;100.00
10921;BME280;5513;50.580;8.818;2023-04-28T03:39:29;98714.38;;;10.67;100.00
10921;BME280;5513;50.580;8.818;2023-04-28T03:41:58;98718.75;;;10.55;100.00
10921;BME280;5513;50.580;8.818;2023-04-28T03:44:28;98721.31;;;10.44;100.00
10921;BME280;5513;50.580;8.818;2023-04-28T03:46:56;98742.03;;;10.12;100.00
10921;BME280;5513;50.580;8.818;2023-04-28T03:49:24;98742.78;;;10.14;100.00
10921;BME280;5513;50.580;8.818;2023-04-28T03:51:53;98747.25;;;10.14;100.00
10921;BME280;5513;50.580;8.818;2023-04-28T03:54:21;98743.28;;;9.94;100.00
10921;BME280;5513;50.580;8.818;2023-04-28T03:56:49;98735.22;;;9.83;100.00
10921;BME280;5513;50.580;8.818;2023-04-28T03:59:17;98738.00;;;9.94;100.00
10921;BME280;5513;50.580;8.818;2023-04-28T04:01:47;98740.44;;;9.97;100.00
10921;BME280;5513;50.580;8.818;2023-04-28T04:04:15;98742.44;;;9.93;100.00
10921;BME280;5513;50.580;8.818;2023-04-28T04:06:44;98738.03;;;9.54;100.00
10921;BME280;5513;50.580;8.818;2023-04-28T04:09:12;98741.41;;;9.43;100.00
10921;BME280;5513;50.580;8.818;2023-04-28T04:11:40;98739.00;;;9.53;100.00
10921;BME280;5513;50.580;8.818;2023-04-28T04:14:09;98740.88;;;9.38;100.00
10921;BME280;5513;50.580;8.818;2023-04-28T04:16:37;98734.91;;;9.35;100.00
10921;BME280;5513;50.580;8.818;2023-04-28T04:19:07;98733.34;;;9.45;100.00
10921;BME280;5513;50.580;8.818;2023-04-28T04:21:35;98730.22;;;9.53;100.00
10921;BME280;5513;50.580;8.818;2023-04-28T04:24:03;98720.41;;;9.67;100.00
10921;BME280;5513;50.580;8.818;2023-04-28T04:26:31;98712.50;;;9.80;100.00
10921;BME280;5513;50.580;8.818;2023-04-28T04:28:59;98708.59;;;9.86;100.00
10921;BME280;5513;50.580;8.818;2023-04-28T04:31:29;98699.09;;;9.96;100.00
10921;BME280;5513;50.580;8.818;2023-04-28T04:33:57;98690.81;;;10.00;100.00
10921;BME280;5513;50.580;8.818;2023-04-28T04:36:27;98697.06;;;9.99;100.00
10921;BME280;5513;50.580;8.818;2023-04-28T04:38:55;98697.16;;;9.98;100.00
10921;BME280;5513;50.580;8.818;2023-04-28T04:41:24;98689.56;;;10.06;100.00
10921;BME280;5513;50.580;8.818;2023-04-28T04:43:52;98693.75;;;10.21;100.00
10921;BME280;5513;50.580;8.818;2023-04-28T04:46:21;98703.63;;;10.32;100.00
10921;BME280;5513;50.580;8.818;2023-04-28T04:48:49;98705.75;;;10.40;100.00
10921;BME280;5513;50.580;8.818;2023-04-28T04:51:17;98704.47;;;10.45;100.00
10921;BME280;5513;50.580;8.818;2023-04-28T04:53:47;98704.97;;;10.50;100.00
10921;BME280;5513;50.580;8.818;2023-04-28T04:56:15;98704.00;;;10.51;100.00
10921;BME280;5513;50.580;8.818;2023-04-28T04:58:44;98706.06;;;10.35;100.00
10921;BME280;5513;50.580;8.818;2023-04-28T05:01:12;98710.91;;;10.41;100.00
10921;BME280;5513;50.580;8.818;2023-04-28T05:03:41;98709.22;;;10.40;100.00
10921;BME280;5513;50.580;8.818;2023-04-28T05:06:10;98708.91;;;10.45;100.00
10921;BME280;5513;50.580;8.818;2023-04-28T05:08:39;98705.69;;;10.65;100.00
10921;BME280;5513;50.580;8.818;2023-04-28T05:11:08;98695.91;;;10.29;100.00
10921;BME280;5513;50.580;8.818;2023-04-28T05:13:37;98690.00;;;10.25;100.00
10921;BME280;5513;50.580;8.818;2023-04-28T05:16:06;98688.25;;;10.50;100.00
10921;BME280;5513;50.580;8.818;2023-04-28T05:18:34;98679.78;;;10.45;100.00
10921;BME280;5513;50.580;8.818;2023-04-28T05:21:03;98673.66;;;10.44;100.00
10921;BME280;5513;50.580;8.818;2023-04-28T05:23:31;98688.19;;;10.26;100.00
10921;BME280;5513;50.580;8.818;2023-04-28T05:26:00;98692.94;;;9.95;100.00
10921;BME280;5513;50.580;8.818;2023-04-28T05:28:32;98684.66;;;10.13;100.00
10921;BME280;5513;50.580;8.818;2023-04-28T05:31:01;98683.81;;;10.12;100.00
10921;BME280;5513;50.580;8.818;2023-04-28T05:33:29;98684.47;;;10.16;100.00
10921;BME280;5513;50.580;8.818;2023-04-28T05:35:58;98690.91;;;10.12;100.00
10921;BME280;5513;50.580;8.818;2023-04-28T05:38:26;98688.81;;;10.17;100.00
10921;BME280;5513;50.580;8.818;2023-04-28T05:40:54;98696.84;;;10.15;100.00
10921;BME280;5513;50.580;8.818;2023-04-28T05:43:23;98695.03;;;10.03;100.00
10921;BME280;5513;50.580;8.818;2023-04-28T05:45:53;98690.59;;;10.16;100.00
10921;BME280;5513;50.580;8.818;2023-04-28T05:48:21;98688.38;;;10.23;100.00
10921;BME280;5513;50.580;8.818;2023-04-28T05:50:49;98691.56;;;10.28;100.00
10921;BME280;5513;50.580;8.818;2023-04-28T05:53:18;98695.47;;;10.22;100.00
10921;BME280;5513;50.580;8.818;2023-04-28T05:55:47;98696.97;;;10.26;100.00
10921;BME280;5513;50.580;8.818;2023-04-28T05:58:15;98692.38;;;10.41;100.00
10921;BME280;5513;50.580;8.818;2023-04-28T06:00:43;98699.06;;;10.47;100.00
10921;BME280;5513;50.580;8.818;2023-04-28T06:03:13;98700.44;;;10.40;100.00
10921;BME280;5513;50.580;8.818;2023-04-28T06:05:45;98697.38;;;10.46;100.00
10921;BME280;5513;50.580;8.818;2023-04-28T06:08:13;98701.81;;;10.45;100.00
10921;BME280;5513;50.580;8.818;2023-04-28T06:10:41;98701.63;;;10.36;100.00
10921;BME280;5513;50.580;8.818;2023-04-28T06:13:10;98702.06;;;10.42;100.00
10921;BME280;5513;50.580;8.818;2023-04-28T06:15:40;98711.22;;;10.49;100.00
10921;BME280;5513;50.580;8.818;2023-04-28T06:18:08;98707.31;;;10.55;100.00
10921;BME280;5513;50.580;8.818;2023-04-28T06:20:38;98716.41;;;10.51;100.00
10921;BME280;5513;50.580;8.818;2023-04-28T06:23:06;98714.53;;;10.53;100.00
10921;BME280;5513;50.580;8.818;2023-04-28T06:25:35;98708.34;;;10.65;100.00
10921;BME280;5513;50.580;8.818;2023-04-28T06:28:04;98707.28;;;10.68;100.00
10921;BME280;5513;50.580;8.818;2023-04-28T06:30:33;98711.50;;;10.70;100.00
10921;BME280;5513;50.580;8.818;2023-04-28T06:33:02;98706.47;;;10.54;100.00
10921;BME280;5513;50.580;8.818;2023-04-28T06:35:31;98712.50;;;10.56;100.00
10921;BME280;5513;50.580;8.818;2023-04-28T06:38:03;98706.84;;;10.61;100.00
10921;BME280;5513;50.580;8.818;2023-04-28T06:40:31;98704.75;;;10.66;100.00
10921;BME280;5513;50.580;8.818;2023-04-28T06:42:59;98698.53;;;10.54;100.00
10921;BME280;5513;50.580;8.818;2023-04-28T06:45:28;98695.22;;;10.51;100.00
10921;BME280;5513;50.580;8.818;2023-04-28T06:47:56;98694.84;;;10.44;100.00
10921;BME280;5513;50.580;8.818;2023-04-28T06:50:24;98697.78;;;10.40;100.00
10921;BME280;5513;50.580;8.818;2023-04-28T06:52:52;98693.69;;;10.36;100.00
10921;BME280;5513;50.580;8.818;2023-04-28T06:55:22;98687.31;;;10.38;100.00
10921;BME280;5513;50.580;8.818;2023-04-28T06:57:50;98688.31;;;10.24;100.00
10921;BME280;5513;50.580;8.818;2023-04-28T07:00:19;98703.19;;;10.38;100.00
10921;BME280;5513;50.580;8.818;2023-04-28T07:02:47;98707.00;;;10.21;100.00
10921;BME280;5513;50.580;8.818;2023-04-28T07:05:15;98716.44;;;10.38;100.00
10921;BME280;5513;50.580;8.818;2023-04-28T07:07:46;98713.81;;;10.25;100.00
10921;BME280;5513;50.580;8.818;2023-04-28T07:10:14;98693.69;;;10.36;100.00
10921;BME280;5513;50.580;8.818;2023-04-28T07:12:44;98699.72;;;10.38;100.00
10921;BME280;5513;50.580;8.818;2023-04-28T07:15:12;98703.84;;;10.29;100.00
10921;BME280;5513;50.580;8.818;2023-04-28T07:17:40;98693.97;;;10.18;100.00
10921;BME280;5513;50.580;8.818;2023-04-28T07:20:09;98695.47;;;10.10;100.00
10921;BME280;5513;50.580;8.818;2023-04-28T07:22:37;98693.13;;;10.18;100.00
10921;BME280;5513;50.580;8.818;2023-04-28T07:25:07;98678.69;;;10.23;100.00
10921;BME280;5513;50.580;8.818;2023-04-28T07:27:35;98661.69;;;10.13;100.00
10921;BME280;5513;50.580;8.818;2023-04-28T07:30:07;98662.13;;;10.20;100.00
10921;BME280;5513;50.580;8.818;2023-04-28T07:32:53;98674.31;;;10.22;100.00
10921;BME280;5513;50.580;8.818;2023-04-28T07:35:21;98692.31;;;10.30;100.00
10921;BME280;5513;50.580;8.818;2023-04-28T07:37:50;98695.69;;;10.32;100.00
10921;BME280;5513;50.580;8.818;2023-04-28T07:40:18;98704.28;;;10.36;100.00
10921;BME280;5513;50.580;8.818;2023-04-28T07:42:47;98698.63;;;10.40;100.00
10921;BME280;5513;50.580;8.818;2023-04-28T07:45:16;98690.81;;;10.39;100.00
10921;BME280;5513;50.580;8.818;2023-04-28T07:47:45;98693.25;;;10.29;100.00
10921;BME280;5513;50.580;8.818;2023-04-28T07:50:13;98684.44;;;10.41;100.00
10921;BME280;5513;50.580;8.818;2023-04-28T07:52:41;98695.16;;;10.40;100.00
10921;BME280;5513;50.580;8.818;2023-04-28T07:55:10;98691.66;;;10.39;100.00
10921;BME280;5513;50.580;8.818;2023-04-28T07:57:39;98690.19;;;10.35;100.00
10921;BME280;5513;50.580;8.818;2023-04-28T08:00:08;98686.06;;;10.31;100.00
10921;BME280;5513;50.580;8.818;2023-04-28T08:02:39;98684.88;;;10.48;100.00
10921;BME280;5513;50.580;8.818;2023-04-28T08:05:08;98682.94;;;10.50;100.00
10921;BME280;5513;50.580;8.818;2023-04-28T08:07:37;98681.78;;;10.54;100.00
10921;BME280;5513;50.580;8.818;2023-04-28T08:10:07;98681.78;;;10.54;100.00
10921;BME280;5513;50.580;8.818;2023-04-28T08:12:35;98689.47;;;10.70;100.00
10921;BME280;5513;50.580;8.818;2023-04-28T08:15:05;98692.22;;;10.81;100.00
10921;BME280;5513;50.580;8.818;2023-04-28T08:17:33;98694.09;;;10.79;100.00
10921;BME280;5513;50.580;8.818;2023-04-28T08:20:07;98697.03;;;10.87;100.00
10921;BME280;5513;50.580;8.818;2023-04-28T08:22:38;98701.19;;;10.91;100.00
10921;BME280;5513;50.580;8.818;2023-04-28T08:25:06;98698.53;;;10.91;100.00
10921;BME280;5513;50.580;8.818;2023-04-28T08:27:36;98707.75;;;10.85;100.00
10921;BME280;5513;50.580;8.818;2023-04-28T08:30:06;98712.88;;;11.00;100.00
10921;BME280;5513;50.580;8.818;2023-04-28T08:32:36;98708.00;;;11.06;100.00
10921;BME280;5513;50.580;8.818;2023-04-28T08:35:08;98712.78;;;11.25;100.00
10921;BME280;5513;50.580;8.818;2023-04-28T08:37:36;98709.31;;;11.01;100.00
10921;BME280;5513;50.580;8.818;2023-04-28T08:40:07;98700.25;;;11.27;100.00
10921;BME280;5513;50.580;8.818;2023-04-28T08:42:36;98704.44;;;11.42;100.00
10921;BME280;5513;50.580;8.818;2023-04-28T08:45:06;98705.00;;;11.35;100.00
10921;BME280;5513;50.580;8.818;2023-04-28T08:47:36;98703.09;;;11.48;100.00
10921;BME280;5513;50.580;8.818;2023-04-28T08:50:07;98699.84;;;11.44;100.00
10921;BME280;5513;50.580;8.818;2023-04-28T08:52:38;98708.31;;;11.50;100.00
10921;BME280;5513;50.580;8.818;2023-04-28T08:55:08;98710.47;;;11.44;100.00
10921;BME280;5513;50.580;8.818;2023-04-28T08:57:42;98713.50;;;11.51;100.00
10921;BME280;5513;50.580;8.818;2023-04-28T09:00:11;98703.66;;;11.29;100.00
10921;BME280;5513;50.580;8.818;2023-04-28T09:02:39;98709.69;;;11.31;100.00
10921;BME280;5513;50.580;8.818;2023-04-28T09:05:11;98710.94;;;11.14;100.00
10921;BME280;5513;50.580;8.818;2023-04-28T09:07:40;98718.31;;;11.22;100.00
10921;BME280;5513;50.580;8.818;2023-04-28T09:10:15;98711.22;;;11.23;100.00
10921;BME280;5513;50.580;8.818;2023-04-28T09:12:45;98717.84;;;11.28;100.00
10921;BME280;5513;50.580;8.818;2023-04-28T09:15:30;98719.13;;;11.46;100.00
10921;BME280;5513;50.580;8.818;2023-04-28T09:18:01;98716.94;;;11.29;100.00
10921;BME280;5513;50.580;8.818;2023-04-28T09:20:32;98719.78;;;11.50;100.00
10921;BME280;5513;50.580;8.818;2023-04-28T09:23:14;98714.16;;;11.31;100.00
10921;BME280;5513;50.580;8.818;2023-04-28T09:25:59;98714.50;;;11.61;100.00
10921;BME280;5513;50.580;8.818;2023-04-28T09:28:27;98713.44;;;11.64;100.00
10921;BME280;5513;50.580;8.818;2023-04-28T09:30:56;98709.81;;;11.65;100.00
10921;BME280;5513;50.580;8.818;2023-04-28T09:33:24;98706.41;;;11.52;100.00
10921;BME280;5513;50.580;8.818;2023-04-28T09:35:55;98712.56;;;11.63;100.00
10921;BME280;5513;50.580;8.818;2023-04-28T09:38:24;98709.84;;;11.41;100.00
10921;BME280;5513;50.580;8.818;2023-04-28T09:40:55;98717.13;;;11.50;100.00
10921;BME280;5513;50.580;8.818;2023-04-28T09:43:25;98719.63;;;11.40;100.00
10921;BME280;5513;50.580;8.818;2023-04-28T09:45:54;98724.91;;;11.40;100.00
10921;BME280;5513;50.580;8.818;2023-04-28T09:48:27;98727.94;;;11.47;100.00
10921;BME280;5513;50.580;8.818;2023-04-28T09:50:58;98719.50;;;11.42;100.00
10921;BME280;5513;50.580;8.818;2023-04-28T09:53:27;98726.81;;;11.38;100.00
10921;BME280;5513;50.580;8.818;2023-04-28T09:55:58;98728.19;;;11.44;100.00
10921;BME280;5513;50.580;8.818;2023-04-28T09:58:27;98726.88;;;11.50;100.00
10921;BME280;5513;50.580;8.818;2023-04-28T10:00:56;98726.53;;;11.54;100.00
10921;BME280;5513;50.580;8.818;2023-04-28T10:03:26;98722.75;;;11.45;100.00
10921;BME280;5513;50.580;8.818;2023-04-28T10:05:57;98731.69;;;11.44;100.00
10921;BME280;5513;50.580;8.818;2023-04-28T10:08:26;98730.53;;;11.60;100.00
10921;BME280;5513;50.580;8.818;2023-04-28T10:10:55;98729.63;;;11.48;100.00
10921;BME280;5513;50.580;8.818;2023-04-28T10:13:24;98723.75;;;11.56;100.00
10921;BME280;5513;50.580;8.818;2023-04-28T10:15:52;98727.84;;;11.25;100.00
10921;BME280;5513;50.580;8.818;2023-04-28T10:18:24;98732.91;;;11.52;100.00
10921;BME280;5513;50.580;8.818;2023-04-28T10:20:58;98723.06;;;11.30;100.00
10921;BME280;5513;50.580;8.818;2023-04-28T10:26:19;98723.22;;;11.39;100.00
10921;BME280;5513;50.580;8.818;2023-04-28T10:28:48;98727.78;;;11.61;100.00
10921;BME280;5513;50.580;8.818;2023-04-28T10:31:18;98734.56;;;11.76;100.00
10921;BME280;5513;50.580;8.818;2023-04-28T10:33:48;98732.66;;;11.79;100.00
10921;BME280;5513;50.580;8.818;2023-04-28T10:36:48;98721.13;;;11.80;100.00
10921;BME280;5513;50.580;8.818;2023-04-28T10:39:20;98718.22;;;11.94;100.00
10921;BME280;5513;50.580;8.818;2023-04-28T10:41:49;98699.31;;;11.87;100.00
10921;BME280;5513;50.580;8.818;2023-04-28T10:44:42;98701.34;;;11.95;100.00
10921;BME280;5513;50.580;8.818;2023-04-28T10:47:12;98706.66;;;12.06;100.00
10921;BME280;5513;50.580;8.818;2023-04-28T10:50:08;98697.19;;;12.26;100.00
10921;BME280;5513;50.580;8.818;2023-04-28T10:52:51;98698.69;;;12.06;100.00
10921;BME280;5513;50.580;8.818;2023-04-28T10:55:28;98689.31;;;12.24;100.00
10921;BME280;5513;50.580;8.818;2023-04-28T10:58:31;98682.22;;;12.36;100.00
10921;BME280;5513;50.580;8.818;2023-04-28T11:01:25;98675.66;;;12.63;100.00
10921;BME280;5513;50.580;8.818;2023-04-28T11:03:54;98664.16;;;12.73;100.00
10921;BME280;5513;50.580;8.818;2023-04-28T11:06:30;98661.06;;;12.57;100.00
10921;BME280;5513;50.580;8.818;2023-04-28T11:09:02;98672.25;;;12.72;100.00
10921;BME280;5513;50.580;8.818;2023-04-28T11:11:31;98674.44;;;12.78;100.00
10921;BME280;5513;50.580;8.818;2023-04-28T11:14:31;98665.72;;;12.87;100.00
10921;BME280;5513;50.580;8.818;2023-04-28T11:17:02;98662.06;;;12.88;100.00
10921;BME280;5513;50.580;8.818;2023-04-28T11:19:32;98653.09;;;12.57;100.00
10921;BME280;5513;50.580;8.818;2023-04-28T11:22:02;98655.09;;;12.76;100.00
10921;BME280;5513;50.580;8.818;2023-04-28T11:24:37;98651.50;;;12.54;100.00
10921;BME280;5513;50.580;8.818;2023-04-28T11:27:05;98652.72;;;12.61;100.00
10921;BME280;5513;50.580;8.818;2023-04-28T11:29:35;98657.38;;;12.80;100.00
10921;BME280;5513;50.580;8.818;2023-04-28T11:32:05;98650.75;;;12.75;100.00
10921;BME280;5513;50.580;8.818;2023-04-28T11:34:34;98658.28;;;13.02;100.00
10921;BME280;5513;50.580;8.818;2023-04-28T11:37:03;98649.44;;;13.24;100.00
10921;BME280;5513;50.580;8.818;2023-04-28T11:39:33;98639.72;;;13.34;100.00
10921;BME280;5513;50.580;8.818;2023-04-28T11:42:09;98645.41;;;13.50;100.00
10921;BME280;5513;50.580;8.818;2023-04-28T11:44:38;98639.78;;;13.64;100.00
10921;BME280;5513;50.580;8.818;2023-04-28T11:47:06;98628.28;;;13.64;100.00
10921;BME280;5513;50.580;8.818;2023-04-28T11:49:41;98635.69;;;13.81;100.00
10921;BME280;5513;50.580;8.818;2023-04-28T11:52:11;98629.81;;;13.87;100.00
10921;BME280;5513;50.580;8.818;2023-04-28T11:54:39;98640.75;;;13.42;100.00
10921;BME280;5513;50.580;8.818;2023-04-28T11:57:17;98649.19;;;13.48;100.00
10921;BME280;5513;50.580;8.818;2023-04-28T11:59:46;98643.63;;;13.71;100.00
10921;BME280;5513;50.580;8.818;2023-04-28T12:02:23;98639.38;;;13.90;100.00
10921;BME280;5513;50.580;8.818;2023-04-28T12:04:53;98632.28;;;14.00;100.00
10921;BME280;5513;50.580;8.818;2023-04-28T12:07:22;98624.81;;;14.24;100.00
10921;BME280;5513;50.580;8.818;2023-04-28T12:10:11;98622.25;;;14.13;100.00
10921;BME280;5513;50.580;8.818;2023-04-28T12:12:43;98619.25;;;14.07;100.00
10921;BME280;5513;50.580;8.818;2023-04-28T12:15:19;98620.44;;;14.14;100.00
10921;BME280;5513;50.580;8.818;2023-04-28T12:17:48;98619.72;;;14.12;100.00
10921;BME280;5513;50.580;8.818;2023-04-28T12:20:33;98618.97;;;14.30;100.00
10921;BME280;5513;50.580;8.818;2023-04-28T12:23:02;98613.72;;;14.19;100.00
10921;BME280;5513;50.580;8.818;2023-04-28T12:25:31;98604.97;;;14.38;100.00
10921;BME280;5513;50.580;8.818;2023-04-28T12:28:03;98608.63;;;14.47;100.00
10921;BME280;5513;50.580;8.818;2023-04-28T12:30:36;98613.91;;;14.68;100.00
10921;BME280;5513;50.580;8.818;2023-04-28T12:33:21;98600.78;;;14.45;100.00
10921;BME280;5513;50.580;8.818;2023-04-28T12:35:49;98602.59;;;14.45;100.00
10921;BME280;5513;50.580;8.818;2023-04-28T12:38:19;98613.56;;;14.51;100.00
10921;BME280;5513;50.580;8.818;2023-04-28T12:40:47;98609.09;;;14.62;100.00
10921;BME280;5513;50.580;8.818;2023-04-28T12:43:17;98612.63;;;14.62;100.00
10921;BME280;5513;50.580;8.818;2023-04-28T12:45:46;98610.66;;;14.74;100.00
10921;BME280;5513;50.580;8.818;2023-04-28T12:48:15;98618.25;;;14.69;100.00
10921;BME280;5513;50.580;8.818;2023-04-28T12:50:44;98621.91;;;14.77;100.00
10921;BME280;5513;50.580;8.818;2023-04-28T12:53:12;98608.03;;;14.93;100.00
10921;BME280;5513;50.580;8.818;2023-04-28T12:55:41;98605.63;;;14.80;100.00
10921;BME280;5513;50.580;8.818;2023-04-28T12:58:09;98611.69;;;15.11;100.00
10921;BME280;5513;50.580;8.818;2023-04-28T13:00:39;98612.81;;;14.99;100.00
10921;BME280;5513;50.580;8.818;2023-04-28T13:03:07;98608.31;;;14.80;100.00
10921;BME280;5513;50.580;8.818;2023-04-28T13:05:35;98603.53;;;15.13;100.00
10921;BME280;5513;50.580;8.818;2023-04-28T13:08:04;98597.19;;;15.62;100.00
10921;BME280;5513;50.580;8.818;2023-04-28T13:10:32;98599.84;;;15.72;100.00
10921;BME280;5513;50.580;8.818;2023-04-28T13:13:00;98596.19;;;15.83;100.00
10921;BME280;5513;50.580;8.818;2023-04-28T13:15:30;98597.06;;;16.01;100.00
10921;BME280;5513;50.580;8.818;2023-04-28T13:17:59;98596.34;;;16.09;100.00